Applegate, Michigan
Current Conditions -  °F | °C
As of 11:00 PM on Thursday 27 Nov 2014 (Local Time) from CYZR Reporting Station
Overcast Overcast  
Wind Chill: 11°   Ceiling: 5000
Heat Index: 25°   Visibility: 9mi
Dew Point: 12°   Wind: 17mph
Humidity: 59%   Direction: 310°NW
Pressure: 30.27"   Gusts: 28mph
Location:  43.36°N, 82.64°W
Report Text: CYZR 280400Z AUTO 31015G24KT 9SM SCT030 SCT036 OVC050 M04/M11 A3027 RMK SLP258
Loading
Personal Weather Stations






























Interactive Weather Map New forecast layout! Learn more

10-Day Weather Forecast

Advertisements
Track Severe Weather on mobile